sensor_id;sensor_type;location;lat;lon;timestamp;P1;durP1;ratioP1;P2;durP2;ratioP2
485;SDS011;229;48.734;9.340;2024-01-06T00:00:24;7.57;;;2.90;;
485;SDS011;229;48.734;9.340;2024-01-06T00:02:51;6.00;;;3.47;;
485;SDS011;229;48.734;9.340;2024-01-06T00:05:18;8.07;;;3.30;;
485;SDS011;229;48.734;9.340;2024-01-06T00:07:46;7.00;;;3.30;;
485;SDS011;229;48.734;9.340;2024-01-06T00:10:13;19.63;;;3.67;;
485;SDS011;229;48.734;9.340;2024-01-06T00:12:40;9.00;;;3.65;;
485;SDS011;229;48.734;9.340;2024-01-06T00:15:07;8.57;;;3.30;;
485;SDS011;229;48.734;9.340;2024-01-06T00:17:37;10.75;;;3.40;;
485;SDS011;229;48.734;9.340;2024-01-06T00:20:04;7.07;;;3.63;;
485;SDS011;229;48.734;9.340;2024-01-06T00:22:32;7.57;;;3.45;;
485;SDS011;229;48.734;9.340;2024-01-06T00:24:59;4.53;;;2.65;;
485;SDS011;229;48.734;9.340;2024-01-06T00:27:26;4.88;;;3.13;;
485;SDS011;229;48.734;9.340;2024-01-06T00:29:53;3.97;;;2.83;;
485;SDS011;229;48.734;9.340;2024-01-06T00:32:20;3.60;;;2.50;;
485;SDS011;229;48.734;9.340;2024-01-06T00:34:49;5.63;;;2.58;;
485;SDS011;229;48.734;9.340;2024-01-06T00:37:16;5.72;;;2.40;;
485;SDS011;229;48.734;9.340;2024-01-06T00:39:43;6.55;;;2.75;;
485;SDS011;229;48.734;9.340;2024-01-06T00:42:11;4.85;;;3.08;;
485;SDS011;229;48.734;9.340;2024-01-06T00:44:38;5.07;;;2.72;;
485;SDS011;229;48.734;9.340;2024-01-06T00:47:05;4.90;;;2.78;;
485;SDS011;229;48.734;9.340;2024-01-06T00:49:32;4.40;;;2.28;;
485;SDS011;229;48.734;9.340;2024-01-06T00:52:01;6.32;;;2.67;;
485;SDS011;229;48.734;9.340;2024-01-06T00:54:28;5.60;;;2.50;;
485;SDS011;229;48.734;9.340;2024-01-06T00:56:55;8.38;;;2.92;;
485;SDS011;229;48.734;9.340;2024-01-06T00:59:22;7.25;;;3.08;;
485;SDS011;229;48.734;9.340;2024-01-06T01:01:50;4.82;;;2.70;;
485;SDS011;229;48.734;9.340;2024-01-06T01:04:17;6.50;;;2.50;;
485;SDS011;229;48.734;9.340;2024-01-06T01:06:44;8.73;;;3.13;;
485;SDS011;229;48.734;9.340;2024-01-06T01:09:13;8.10;;;3.08;;
485;SDS011;229;48.734;9.340;2024-01-06T01:11:40;6.65;;;2.90;;
485;SDS011;229;48.734;9.340;2024-01-06T01:14:07;5.97;;;2.72;;
485;SDS011;229;48.734;9.340;2024-01-06T01:16:35;5.97;;;2.88;;
485;SDS011;229;48.734;9.340;2024-01-06T01:19:02;4.75;;;2.80;;
485;SDS011;229;48.734;9.340;2024-01-06T01:21:29;6.10;;;3.20;;
485;SDS011;229;48.734;9.340;2024-01-06T01:23:56;8.57;;;3.03;;
485;SDS011;229;48.734;9.340;2024-01-06T01:26:25;3.67;;;2.30;;
485;SDS011;229;48.734;9.340;2024-01-06T01:28:52;5.03;;;2.70;;
485;SDS011;229;48.734;9.340;2024-01-06T01:31:19;6.57;;;2.33;;
485;SDS011;229;48.734;9.340;2024-01-06T01:33:46;9.52;;;2.50;;
485;SDS011;229;48.734;9.340;2024-01-06T01:36:14;4.75;;;2.50;;
485;SDS011;229;48.734;9.340;2024-01-06T01:38:43;4.93;;;2.65;;
485;SDS011;229;48.734;9.340;2024-01-06T01:41:10;5.97;;;2.67;;
485;SDS011;229;48.734;9.340;2024-01-06T01:43:38;11.38;;;2.95;;
485;SDS011;229;48.734;9.340;2024-01-06T01:46:06;6.53;;;2.83;;
485;SDS011;229;48.734;9.340;2024-01-06T01:48:33;5.15;;;2.35;;
485;SDS011;229;48.734;9.340;2024-01-06T01:51:00;4.90;;;2.75;;
485;SDS011;229;48.734;9.340;2024-01-06T01:53:28;4.60;;;2.55;;
485;SDS011;229;48.734;9.340;2024-01-06T01:55:56;8.15;;;3.10;;
485;SDS011;229;48.734;9.340;2024-01-06T01:58:24;4.63;;;2.35;;
485;SDS011;229;48.734;9.340;2024-01-06T02:00:52;7.70;;;3.42;;
485;SDS011;229;48.734;9.340;2024-01-06T02:03:20;6.18;;;2.80;;
485;SDS011;229;48.734;9.340;2024-01-06T02:05:47;4.50;;;2.75;;
485;SDS011;229;48.734;9.340;2024-01-06T02:08:15;7.25;;;2.83;;
485;SDS011;229;48.734;9.340;2024-01-06T02:10:42;6.40;;;3.03;;
485;SDS011;229;48.734;9.340;2024-01-06T02:13:09;5.60;;;2.80;;
485;SDS011;229;48.734;9.340;2024-01-06T02:15:36;5.65;;;2.70;;
485;SDS011;229;48.734;9.340;2024-01-06T02:18:05;5.28;;;3.10;;
485;SDS011;229;48.734;9.340;2024-01-06T02:20:33;5.47;;;3.70;;
485;SDS011;229;48.734;9.340;2024-01-06T02:23:01;7.57;;;3.90;;
485;SDS011;229;48.734;9.340;2024-01-06T02:25:28;12.00;;;4.32;;
485;SDS011;229;48.734;9.340;2024-01-06T02:27:56;8.63;;;4.60;;
485;SDS011;229;48.734;9.340;2024-01-06T02:30:23;12.27;;;5.40;;
485;SDS011;229;48.734;9.340;2024-01-06T02:32:50;8.07;;;5.82;;
485;SDS011;229;48.734;9.340;2024-01-06T02:35:17;13.30;;;5.20;;
485;SDS011;229;48.734;9.340;2024-01-06T02:37:44;7.70;;;4.78;;
485;SDS011;229;48.734;9.340;2024-01-06T02:40:13;5.97;;;3.92;;
485;SDS011;229;48.734;9.340;2024-01-06T02:42:40;6.30;;;4.22;;
485;SDS011;229;48.734;9.340;2024-01-06T02:45:08;7.63;;;4.05;;
485;SDS011;229;48.734;9.340;2024-01-06T02:47:35;9.15;;;3.58;;
485;SDS011;229;48.734;9.340;2024-01-06T02:50:03;5.35;;;3.40;;
485;SDS011;229;48.734;9.340;2024-01-06T02:52:30;6.78;;;2.80;;
485;SDS011;229;48.734;9.340;2024-01-06T02:54:57;6.25;;;3.53;;
485;SDS011;229;48.734;9.340;2024-01-06T02:57:27;9.55;;;2.70;;
485;SDS011;229;48.734;9.340;2024-01-06T02:59:54;9.18;;;3.00;;
485;SDS011;229;48.734;9.340;2024-01-06T03:02:21;4.47;;;2.20;;
485;SDS011;229;48.734;9.340;2024-01-06T03:04:48;6.72;;;2.88;;
485;SDS011;229;48.734;9.340;2024-01-06T03:07:15;7.10;;;2.50;;
485;SDS011;229;48.734;9.340;2024-01-06T03:09:42;3.85;;;2.30;;
485;SDS011;229;48.734;9.340;2024-01-06T03:12:10;4.15;;;2.50;;
485;SDS011;229;48.734;9.340;2024-01-06T03:14:38;3.80;;;2.13;;
485;SDS011;229;48.734;9.340;2024-01-06T03:17:05;7.13;;;2.40;;
485;SDS011;229;48.734;9.340;2024-01-06T03:19:35;7.57;;;3.03;;
485;SDS011;229;48.734;9.340;2024-01-06T03:22:03;8.70;;;2.75;;
485;SDS011;229;48.734;9.340;2024-01-06T03:24:30;5.85;;;2.55;;
485;SDS011;229;48.734;9.340;2024-01-06T03:26:57;4.72;;;2.85;;
485;SDS011;229;48.734;9.340;2024-01-06T03:29:24;3.88;;;2.50;;
485;SDS011;229;48.734;9.340;2024-01-06T03:31:53;7.70;;;2.60;;
485;SDS011;229;48.734;9.340;2024-01-06T03:34:20;5.15;;;2.45;;
485;SDS011;229;48.734;9.340;2024-01-06T03:36:47;8.32;;;2.53;;
485;SDS011;229;48.734;9.340;2024-01-06T03:39:14;4.82;;;2.47;;
485;SDS011;229;48.734;9.340;2024-01-06T03:41:41;5.38;;;2.50;;
485;SDS011;229;48.734;9.340;2024-01-06T03:44:08;5.25;;;2.40;;
485;SDS011;229;48.734;9.340;2024-01-06T03:46:36;4.90;;;2.38;;
485;SDS011;229;48.734;9.340;2024-01-06T03:49:04;5.10;;;2.75;;
485;SDS011;229;48.734;9.340;2024-01-06T03:51:31;4.10;;;2.30;;
485;SDS011;229;48.734;9.340;2024-01-06T03:53:58;5.10;;;2.35;;
485;SDS011;229;48.734;9.340;2024-01-06T03:56:26;7.95;;;2.63;;
485;SDS011;229;48.734;9.340;2024-01-06T03:58:53;5.95;;;3.03;;
485;SDS011;229;48.734;9.340;2024-01-06T04:01:20;11.70;;;2.70;;
485;SDS011;229;48.734;9.340;2024-01-06T04:03:47;5.03;;;2.42;;
485;SDS011;229;48.734;9.340;2024-01-06T04:06:16;3.78;;;2.33;;
485;SDS011;229;48.734;9.340;2024-01-06T04:08:43;6.78;;;2.88;;
485;SDS011;229;48.734;9.340;2024-01-06T04:11:10;6.25;;;2.67;;
485;SDS011;229;48.734;9.340;2024-01-06T04:13:37;4.05;;;2.28;;
485;SDS011;229;48.734;9.340;2024-01-06T04:16:04;4.50;;;2.70;;
485;SDS011;229;48.734;9.340;2024-01-06T04:18:32;6.55;;;2.00;;
485;SDS011;229;48.734;9.340;2024-01-06T04:20:59;5.63;;;1.98;;
485;SDS011;229;48.734;9.340;2024-01-06T04:23:27;3.58;;;2.33;;
485;SDS011;229;48.734;9.340;2024-01-06T04:25:55;3.80;;;2.20;;
485;SDS011;229;48.734;9.340;2024-01-06T04:28:22;8.18;;;2.50;;
485;SDS011;229;48.734;9.340;2024-01-06T04:30:49;4.43;;;2.40;;
485;SDS011;229;48.734;9.340;2024-01-06T04:33:16;4.47;;;2.15;;
485;SDS011;229;48.734;9.340;2024-01-06T04:35:43;6.20;;;2.25;;
485;SDS011;229;48.734;9.340;2024-01-06T04:38:10;7.90;;;2.22;;
485;SDS011;229;48.734;9.340;2024-01-06T04:40:39;6.03;;;2.20;;
485;SDS011;229;48.734;9.340;2024-01-06T04:43:06;5.97;;;1.83;;
485;SDS011;229;48.734;9.340;2024-01-06T04:45:33;13.90;;;2.25;;
485;SDS011;229;48.734;9.340;2024-01-06T04:48:02;3.25;;;2.03;;
485;SDS011;229;48.734;9.340;2024-01-06T04:50:29;7.05;;;2.10;;
485;SDS011;229;48.734;9.340;2024-01-06T04:52:56;3.63;;;1.88;;
485;SDS011;229;48.734;9.340;2024-01-06T04:55:24;6.32;;;2.10;;
485;SDS011;229;48.734;9.340;2024-01-06T04:57:52;9.20;;;2.53;;
485;SDS011;229;48.734;9.340;2024-01-06T05:00:19;3.85;;;2.00;;
485;SDS011;229;48.734;9.340;2024-01-06T05:02:47;5.22;;;2.08;;
485;SDS011;229;48.734;9.340;2024-01-06T05:05:14;4.72;;;1.77;;
485;SDS011;229;48.734;9.340;2024-01-06T05:07:41;6.15;;;1.80;;
485;SDS011;229;48.734;9.340;2024-01-06T05:10:08;5.93;;;2.00;;
485;SDS011;229;48.734;9.340;2024-01-06T05:12:35;7.43;;;3.00;;
485;SDS011;229;48.734;9.340;2024-01-06T05:15:05;6.50;;;2.05;;
485;SDS011;229;48.734;9.340;2024-01-06T05:17:32;7.10;;;1.77;;
485;SDS011;229;48.734;9.340;2024-01-06T05:19:59;4.95;;;2.25;;
485;SDS011;229;48.734;9.340;2024-01-06T05:22:26;3.40;;;1.90;;
485;SDS011;229;48.734;9.340;2024-01-06T05:24:53;5.88;;;2.47;;
485;SDS011;229;48.734;9.340;2024-01-06T05:27:21;7.25;;;1.98;;
485;SDS011;229;48.734;9.340;2024-01-06T05:29:48;3.20;;;2.10;;
485;SDS011;229;48.734;9.340;2024-01-06T05:32:18;4.03;;;1.45;;
485;SDS011;229;48.734;9.340;2024-01-06T05:34:45;4.85;;;2.30;;
485;SDS011;229;48.734;9.340;2024-01-06T05:37:12;4.40;;;2.00;;
485;SDS011;229;48.734;9.340;2024-01-06T05:39:39;3.55;;;1.70;;
485;SDS011;229;48.734;9.340;2024-01-06T05:42:07;6.40;;;2.00;;
485;SDS011;229;48.734;9.340;2024-01-06T05:44:35;5.65;;;2.10;;
485;SDS011;229;48.734;9.340;2024-01-06T05:47:03;9.90;;;2.08;;
485;SDS011;229;48.734;9.340;2024-01-06T05:49:32;4.90;;;2.22;;
485;SDS011;229;48.734;9.340;2024-01-06T05:51:59;3.88;;;1.58;;
485;SDS011;229;48.734;9.340;2024-01-06T05:54:26;4.78;;;1.88;;
485;SDS011;229;48.734;9.340;2024-01-06T05:56:53;7.43;;;1.98;;
485;SDS011;229;48.734;9.340;2024-01-06T05:59:22;7.47;;;2.33;;
485;SDS011;229;48.734;9.340;2024-01-06T06:01:49;10.45;;;1.80;;
485;SDS011;229;48.734;9.340;2024-01-06T06:04:17;8.15;;;2.10;;
485;SDS011;229;48.734;9.340;2024-01-06T06:06:46;2.38;;;1.80;;
485;SDS011;229;48.734;9.340;2024-01-06T06:09:13;6.32;;;2.00;;
485;SDS011;229;48.734;9.340;2024-01-06T06:11:40;6.47;;;2.40;;
485;SDS011;229;48.734;9.340;2024-01-06T06:14:08;11.13;;;2.47;;
485;SDS011;229;48.734;9.340;2024-01-06T06:16:35;6.82;;;2.22;;
485;SDS011;229;48.734;9.340;2024-01-06T06:19:02;7.45;;;2.83;;
485;SDS011;229;48.734;9.340;2024-01-06T06:21:30;4.93;;;2.80;;
485;SDS011;229;48.734;9.340;2024-01-06T06:23:58;2.80;;;1.80;;
485;SDS011;229;48.734;9.340;2024-01-06T06:26:25;4.65;;;1.80;;
485;SDS011;229;48.734;9.340;2024-01-06T06:28:52;5.18;;;1.92;;
485;SDS011;229;48.734;9.340;2024-01-06T06:31:20;3.95;;;2.22;;
485;SDS011;229;48.734;9.340;2024-01-06T06:33:47;4.80;;;1.90;;
485;SDS011;229;48.734;9.340;2024-01-06T06:36:14;4.03;;;1.95;;
485;SDS011;229;48.734;9.340;2024-01-06T06:38:41;3.05;;;1.60;;
485;SDS011;229;48.734;9.340;2024-01-06T06:41:09;6.13;;;2.00;;
485;SDS011;229;48.734;9.340;2024-01-06T06:43:37;7.25;;;2.78;;
485;SDS011;229;48.734;9.340;2024-01-06T06:46:04;8.45;;;1.85;;
485;SDS011;229;48.734;9.340;2024-01-06T06:48:31;4.03;;;1.70;;
485;SDS011;229;48.734;9.340;2024-01-06T06:51:00;5.72;;;1.80;;
485;SDS011;229;48.734;9.340;2024-01-06T06:53:28;3.47;;;1.80;;
485;SDS011;229;48.734;9.340;2024-01-06T06:55:55;7.25;;;2.08;;
485;SDS011;229;48.734;9.340;2024-01-06T06:58:23;7.57;;;2.30;;
485;SDS011;229;48.734;9.340;2024-01-06T07:00:50;2.90;;;1.65;;
485;SDS011;229;48.734;9.340;2024-01-06T07:03:19;6.78;;;1.90;;
485;SDS011;229;48.734;9.340;2024-01-06T07:05:46;3.20;;;1.60;;
485;SDS011;229;48.734;9.340;2024-01-06T07:08:13;6.68;;;2.20;;
485;SDS011;229;48.734;9.340;2024-01-06T07:10:40;6.40;;;1.80;;
485;SDS011;229;48.734;9.340;2024-01-06T07:13:07;4.78;;;2.25;;
485;SDS011;229;48.734;9.340;2024-01-06T07:15:36;6.75;;;2.30;;
485;SDS011;229;48.734;9.340;2024-01-06T07:18:03;6.55;;;2.47;;
485;SDS011;229;48.734;9.340;2024-01-06T07:20:31;3.75;;;2.20;;
485;SDS011;229;48.734;9.340;2024-01-06T07:22:58;5.38;;;2.10;;
485;SDS011;229;48.734;9.340;2024-01-06T07:25:28;9.68;;;2.47;;
485;SDS011;229;48.734;9.340;2024-01-06T07:27:56;8.10;;;3.45;;
485;SDS011;229;48.734;9.340;2024-01-06T07:30:23;6.22;;;2.83;;
485;SDS011;229;48.734;9.340;2024-01-06T07:32:52;5.35;;;2.50;;
485;SDS011;229;48.734;9.340;2024-01-06T07:35:19;4.07;;;2.33;;
485;SDS011;229;48.734;9.340;2024-01-06T07:37:46;13.80;;;2.22;;
485;SDS011;229;48.734;9.340;2024-01-06T07:40:13;4.28;;;2.10;;
485;SDS011;229;48.734;9.340;2024-01-06T07:42:41;7.22;;;2.30;;
485;SDS011;229;48.734;9.340;2024-01-06T07:45:09;2.97;;;1.98;;
485;SDS011;229;48.734;9.340;2024-01-06T07:47:37;7.55;;;2.13;;
485;SDS011;229;48.734;9.340;2024-01-06T07:50:06;6.80;;;2.60;;
485;SDS011;229;48.734;9.340;2024-01-06T07:52:33;6.63;;;1.95;;
485;SDS011;229;48.734;9.340;2024-01-06T07:55:00;6.50;;;1.70;;
485;SDS011;229;48.734;9.340;2024-01-06T07:57:28;7.07;;;2.10;;
485;SDS011;229;48.734;9.340;2024-01-06T07:59:55;3.67;;;2.45;;
485;SDS011;229;48.734;9.340;2024-01-06T08:02:22;4.30;;;2.22;;
485;SDS011;229;48.734;9.340;2024-01-06T08:04:50;4.95;;;2.50;;
485;SDS011;229;48.734;9.340;2024-01-06T08:07:18;8.38;;;2.47;;
485;SDS011;229;48.734;9.340;2024-01-06T08:09:46;5.50;;;2.13;;
485;SDS011;229;48.734;9.340;2024-01-06T08:12:13;5.57;;;2.67;;
485;SDS011;229;48.734;9.340;2024-01-06T08:14:40;5.22;;;3.00;;
485;SDS011;229;48.734;9.340;2024-01-06T08:17:07;6.53;;;2.70;;
485;SDS011;229;48.734;9.340;2024-01-06T08:19:34;8.45;;;3.13;;
485;SDS011;229;48.734;9.340;2024-01-06T08:22:02;7.93;;;2.88;;
485;SDS011;229;48.734;9.340;2024-01-06T08:24:30;6.32;;;3.53;;
485;SDS011;229;48.734;9.340;2024-01-06T08:26:57;9.63;;;4.78;;
485;SDS011;229;48.734;9.340;2024-01-06T08:29:24;5.78;;;3.90;;
485;SDS011;229;48.734;9.340;2024-01-06T08:31:52;8.93;;;3.97;;
485;SDS011;229;48.734;9.340;2024-01-06T08:34:19;8.45;;;4.50;;
485;SDS011;229;48.734;9.340;2024-01-06T08:36:47;10.13;;;5.00;;
485;SDS011;229;48.734;9.340;2024-01-06T08:39:14;9.50;;;4.68;;
485;SDS011;229;48.734;9.340;2024-01-06T08:41:42;9.90;;;4.95;;
485;SDS011;229;48.734;9.340;2024-01-06T08:44:10;9.75;;;4.32;;
485;SDS011;229;48.734;9.340;2024-01-06T08:46:37;21.63;;;5.40;;
485;SDS011;229;48.734;9.340;2024-01-06T08:49:04;10.30;;;4.97;;
485;SDS011;229;48.734;9.340;2024-01-06T08:51:32;9.98;;;4.25;;
485;SDS011;229;48.734;9.340;2024-01-06T08:53:59;10.65;;;4.15;;
485;SDS011;229;48.734;9.340;2024-01-06T08:56:28;12.52;;;4.88;;
485;SDS011;229;48.734;9.340;2024-01-06T08:58:57;9.82;;;4.32;;
485;SDS011;229;48.734;9.340;2024-01-06T09:01:24;12.15;;;4.10;;
485;SDS011;229;48.734;9.340;2024-01-06T09:03:51;7.38;;;3.72;;
485;SDS011;229;48.734;9.340;2024-01-06T09:06:18;10.63;;;4.72;;
485;SDS011;229;48.734;9.340;2024-01-06T09:08:45;7.53;;;4.30;;
485;SDS011;229;48.734;9.340;2024-01-06T09:11:12;6.78;;;4.03;;
485;SDS011;229;48.734;9.340;2024-01-06T09:13:40;7.22;;;3.75;;
485;SDS011;229;48.734;9.340;2024-01-06T09:16:08;8.02;;;4.20;;
485;SDS011;229;48.734;9.340;2024-01-06T09:18:35;8.82;;;3.72;;
485;SDS011;229;48.734;9.340;2024-01-06T09:21:03;7.88;;;3.97;;
485;SDS011;229;48.734;9.340;2024-01-06T09:23:30;5.82;;;3.80;;
485;SDS011;229;48.734;9.340;2024-01-06T09:25:57;5.35;;;3.80;;
485;SDS011;229;48.734;9.340;2024-01-06T09:28:24;5.25;;;3.90;;
485;SDS011;229;48.734;9.340;2024-01-06T09:30:53;14.85;;;4.53;;
485;SDS011;229;48.734;9.340;2024-01-06T09:33:22;7.35;;;3.97;;
485;SDS011;229;48.734;9.340;2024-01-06T09:35:49;5.90;;;3.72;;
485;SDS011;229;48.734;9.340;2024-01-06T09:38:16;6.15;;;3.88;;
485;SDS011;229;48.734;9.340;2024-01-06T09:40:44;9.77;;;6.75;;
485;SDS011;229;48.734;9.340;2024-01-06T09:43:11;5.30;;;4.57;;
485;SDS011;229;48.734;9.340;2024-01-06T09:45:38;5.65;;;3.90;;
485;SDS011;229;48.734;9.340;2024-01-06T09:48:08;7.15;;;4.40;;
485;SDS011;229;48.734;9.340;2024-01-06T09:50:38;4.80;;;3.63;;
485;SDS011;229;48.734;9.340;2024-01-06T09:53:07;6.32;;;3.30;;
485;SDS011;229;48.734;9.340;2024-01-06T09:55:36;6.30;;;3.80;;
485;SDS011;229;48.734;9.340;2024-01-06T09:58:03;7.78;;;3.88;;
485;SDS011;229;48.734;9.340;2024-01-06T10:00:31;4.28;;;3.28;;
485;SDS011;229;48.734;9.340;2024-01-06T10:02:58;8.48;;;3.72;;
485;SDS011;229;48.734;9.340;2024-01-06T10:05:25;5.80;;;3.70;;
485;SDS011;229;48.734;9.340;2024-01-06T10:07:54;5.97;;;3.90;;
485;SDS011;229;48.734;9.340;2024-01-06T10:10:22;5.93;;;3.30;;
485;SDS011;229;48.734;9.340;2024-01-06T10:12:52;6.90;;;4.10;;
485;SDS011;229;48.734;9.340;2024-01-06T10:15:20;5.20;;;3.80;;
485;SDS011;229;48.734;9.340;2024-01-06T10:17:48;5.18;;;3.40;;
485;SDS011;229;48.734;9.340;2024-01-06T10:20:15;10.80;;;3.80;;
485;SDS011;229;48.734;9.340;2024-01-06T10:22:45;6.72;;;3.33;;
485;SDS011;229;48.734;9.340;2024-01-06T10:25:14;5.30;;;3.40;;
485;SDS011;229;48.734;9.340;2024-01-06T10:27:41;3.70;;;3.10;;
485;SDS011;229;48.734;9.340;2024-01-06T10:30:09;8.10;;;3.38;;
485;SDS011;229;48.734;9.340;2024-01-06T10:32:38;3.55;;;2.90;;
485;SDS011;229;48.734;9.340;2024-01-06T10:35:06;5.20;;;3.25;;
485;SDS011;229;48.734;9.340;2024-01-06T10:37:34;4.78;;;3.40;;
485;SDS011;229;48.734;9.340;2024-01-06T10:40:08;5.55;;;3.72;;
485;SDS011;229;48.734;9.340;2024-01-06T10:42:38;3.63;;;3.30;;
485;SDS011;229;48.734;9.340;2024-01-06T10:45:06;5.30;;;3.42;;
485;SDS011;229;48.734;9.340;2024-01-06T10:47:34;5.78;;;3.95;;
485;SDS011;229;48.734;9.340;2024-01-06T10:50:01;4.72;;;3.10;;
485;SDS011;229;48.734;9.340;2024-01-06T10:52:29;6.43;;;3.50;;
485;SDS011;229;48.734;9.340;2024-01-06T10:54:56;6.82;;;3.60;;
485;SDS011;229;48.734;9.340;2024-01-06T10:57:24;5.90;;;3.40;;
485;SDS011;229;48.734;9.340;2024-01-06T10:59:54;4.65;;;3.30;;
485;SDS011;229;48.734;9.340;2024-01-06T11:02:23;7.80;;;3.67;;
485;SDS011;229;48.734;9.340;2024-01-06T11:04:51;5.75;;;3.38;;
485;SDS011;229;48.734;9.340;2024-01-06T11:07:19;5.20;;;3.00;;
485;SDS011;229;48.734;9.340;2024-01-06T11:09:47;3.38;;;2.38;;
485;SDS011;229;48.734;9.340;2024-01-06T11:12:16;2.70;;;2.35;;
485;SDS011;229;48.734;9.340;2024-01-06T11:14:43;4.03;;;2.22;;
485;SDS011;229;48.734;9.340;2024-01-06T11:17:13;6.07;;;2.95;;
485;SDS011;229;48.734;9.340;2024-01-06T11:20:04;5.32;;;2.30;;
485;SDS011;229;48.734;9.340;2024-01-06T11:22:31;3.33;;;2.50;;
485;SDS011;229;48.734;9.340;2024-01-06T11:25:05;4.22;;;2.55;;
485;SDS011;229;48.734;9.340;2024-01-06T11:27:33;3.50;;;2.25;;
485;SDS011;229;48.734;9.340;2024-01-06T11:30:01;1.95;;;1.70;;
485;SDS011;229;48.734;9.340;2024-01-06T11:32:32;4.28;;;2.70;;
485;SDS011;229;48.734;9.340;2024-01-06T11:35:04;3.90;;;2.80;;
485;SDS011;229;48.734;9.340;2024-01-06T11:37:36;3.72;;;2.42;;
485;SDS011;229;48.734;9.340;2024-01-06T11:40:07;6.22;;;3.28;;
485;SDS011;229;48.734;9.340;2024-01-06T11:42:35;4.63;;;2.80;;
485;SDS011;229;48.734;9.340;2024-01-06T11:45:02;4.28;;;2.88;;
485;SDS011;229;48.734;9.340;2024-01-06T11:47:31;4.15;;;2.58;;
485;SDS011;229;48.734;9.340;2024-01-06T11:49:59;4.55;;;3.05;;
485;SDS011;229;48.734;9.340;2024-01-06T11:52:28;3.63;;;2.72;;
485;SDS011;229;48.734;9.340;2024-01-06T11:54:55;2.75;;;2.47;;
485;SDS011;229;48.734;9.340;2024-01-06T11:57:24;2.88;;;2.17;;
485;SDS011;229;48.734;9.340;2024-01-06T11:59:51;2.65;;;2.50;;
485;SDS011;229;48.734;9.340;2024-01-06T12:02:19;2.80;;;2.33;;
485;SDS011;229;48.734;9.340;2024-01-06T12:04:49;3.95;;;2.70;;
485;SDS011;229;48.734;9.340;2024-01-06T12:07:17;4.80;;;2.78;;
485;SDS011;229;48.734;9.340;2024-01-06T12:09:45;2.83;;;1.83;;
485;SDS011;229;48.734;9.340;2024-01-06T12:12:14;3.10;;;2.60;;
485;SDS011;229;48.734;9.340;2024-01-06T12:14:42;2.80;;;2.33;;
485;SDS011;229;48.734;9.340;2024-01-06T12:17:10;3.85;;;2.55;;
485;SDS011;229;48.734;9.340;2024-01-06T12:19:38;4.20;;;2.78;;
485;SDS011;229;48.734;9.340;2024-01-06T12:22:09;8.40;;;2.88;;
485;SDS011;229;48.734;9.340;2024-01-06T12:24:36;5.43;;;3.00;;
485;SDS011;229;48.734;9.340;2024-01-06T12:27:06;4.47;;;3.20;;
485;SDS011;229;48.734;9.340;2024-01-06T12:29:34;2.80;;;2.58;;
485;SDS011;229;48.734;9.340;2024-01-06T12:32:04;5.07;;;4.10;;
485;SDS011;229;48.734;9.340;2024-01-06T12:34:32;3.72;;;3.10;;
485;SDS011;229;48.734;9.340;2024-01-06T12:36:59;3.38;;;3.10;;
485;SDS011;229;48.734;9.340;2024-01-06T12:39:29;3.58;;;3.15;;
485;SDS011;229;48.734;9.340;2024-01-06T12:41:57;5.20;;;3.70;;
485;SDS011;229;48.734;9.340;2024-01-06T12:44:26;4.97;;;3.10;;
485;SDS011;229;48.734;9.340;2024-01-06T12:46:53;4.20;;;3.15;;
485;SDS011;229;48.734;9.340;2024-01-06T12:49:20;3.83;;;3.25;;
485;SDS011;229;48.734;9.340;2024-01-06T12:51:47;4.28;;;3.20;;
485;SDS011;229;48.734;9.340;2024-01-06T12:54:15;4.88;;;3.50;;
485;SDS011;229;48.734;9.340;2024-01-06T12:56:43;4.60;;;3.33;;
485;SDS011;229;48.734;9.340;2024-01-06T12:59:11;5.43;;;4.03;;
485;SDS011;229;48.734;9.340;2024-01-06T13:01:38;4.40;;;3.70;;
485;SDS011;229;48.734;9.340;2024-01-06T13:04:05;4.05;;;3.80;;
485;SDS011;229;48.734;9.340;2024-01-06T13:06:32;6.72;;;3.70;;
485;SDS011;229;48.734;9.340;2024-01-06T13:08:59;5.85;;;3.92;;
485;SDS011;229;48.734;9.340;2024-01-06T13:11:31;4.65;;;3.85;;
485;SDS011;229;48.734;9.340;2024-01-06T13:14:00;3.33;;;3.20;;
485;SDS011;229;48.734;9.340;2024-01-06T13:16:28;7.43;;;4.13;;
485;SDS011;229;48.734;9.340;2024-01-06T13:18:55;6.03;;;4.30;;
485;SDS011;229;48.734;9.340;2024-01-06T13:21:22;7.47;;;4.18;;
485;SDS011;229;48.734;9.340;2024-01-06T13:23:49;4.75;;;3.70;;
485;SDS011;229;48.734;9.340;2024-01-06T13:26:17;4.50;;;4.00;;
485;SDS011;229;48.734;9.340;2024-01-06T13:28:44;4.95;;;4.00;;
485;SDS011;229;48.734;9.340;2024-01-06T13:31:12;5.20;;;4.22;;
485;SDS011;229;48.734;9.340;2024-01-06T13:33:40;7.45;;;4.00;;
485;SDS011;229;48.734;9.340;2024-01-06T13:36:07;7.78;;;5.03;;
485;SDS011;229;48.734;9.340;2024-01-06T13:38:34;4.93;;;4.18;;
485;SDS011;229;48.734;9.340;2024-01-06T13:41:02;6.80;;;4.55;;
485;SDS011;229;48.734;9.340;2024-01-06T13:43:29;5.30;;;4.20;;
485;SDS011;229;48.734;9.340;2024-01-06T13:45:57;5.80;;;4.38;;
485;SDS011;229;48.734;9.340;2024-01-06T13:48:25;6.20;;;5.15;;
485;SDS011;229;48.734;9.340;2024-01-06T13:50:53;6.38;;;4.90;;
485;SDS011;229;48.734;9.340;2024-01-06T13:53:21;7.65;;;5.38;;
485;SDS011;229;48.734;9.340;2024-01-06T13:55:48;5.22;;;4.70;;
485;SDS011;229;48.734;9.340;2024-01-06T13:58:15;6.30;;;5.35;;
485;SDS011;229;48.734;9.340;2024-01-06T14:00:44;7.15;;;5.85;;
485;SDS011;229;48.734;9.340;2024-01-06T14:03:11;7.97;;;5.95;;
485;SDS011;229;48.734;9.340;2024-01-06T14:05:39;9.70;;;6.32;;
485;SDS011;229;48.734;9.340;2024-01-06T14:08:07;8.48;;;6.72;;
485;SDS011;229;48.734;9.340;2024-01-06T14:10:34;7.25;;;6.22;;
485;SDS011;229;48.734;9.340;2024-01-06T14:13:03;7.70;;;6.50;;
485;SDS011;229;48.734;9.340;2024-01-06T14:15:30;7.10;;;5.93;;
485;SDS011;229;48.734;9.340;2024-01-06T14:17:58;8.35;;;6.50;;
485;SDS011;229;48.734;9.340;2024-01-06T14:20:25;8.65;;;6.20;;
485;SDS011;229;48.734;9.340;2024-01-06T14:22:54;8.20;;;6.72;;
485;SDS011;229;48.734;9.340;2024-01-06T14:25:21;8.77;;;6.50;;
485;SDS011;229;48.734;9.340;2024-01-06T14:27:48;8.60;;;6.38;;
485;SDS011;229;48.734;9.340;2024-01-06T14:30:15;10.50;;;7.90;;
485;SDS011;229;48.734;9.340;2024-01-06T14:32:45;14.98;;;7.60;;
485;SDS011;229;48.734;9.340;2024-01-06T14:35:12;11.57;;;7.65;;
485;SDS011;229;48.734;9.340;2024-01-06T14:37:41;12.35;;;8.38;;
485;SDS011;229;48.734;9.340;2024-01-06T14:40:11;10.55;;;7.43;;
485;SDS011;229;48.734;9.340;2024-01-06T14:42:38;10.45;;;7.53;;
485;SDS011;229;48.734;9.340;2024-01-06T14:45:05;10.93;;;7.90;;
485;SDS011;229;48.734;9.340;2024-01-06T14:47:33;11.80;;;7.85;;
485;SDS011;229;48.734;9.340;2024-01-06T14:50:00;10.75;;;7.55;;
485;SDS011;229;48.734;9.340;2024-01-06T14:52:27;10.40;;;7.25;;
485;SDS011;229;48.734;9.340;2024-01-06T14:54:54;9.35;;;6.75;;
485;SDS011;229;48.734;9.340;2024-01-06T14:57:23;8.75;;;6.82;;
485;SDS011;229;48.734;9.340;2024-01-06T14:59:50;8.05;;;7.13;;
485;SDS011;229;48.734;9.340;2024-01-06T15:02:17;11.48;;;8.50;;
485;SDS011;229;48.734;9.340;2024-01-06T15:04:44;10.02;;;7.50;;
485;SDS011;229;48.734;9.340;2024-01-06T15:07:12;12.23;;;8.60;;
485;SDS011;229;48.734;9.340;2024-01-06T15:09:39;11.38;;;7.28;;
485;SDS011;229;48.734;9.340;2024-01-06T15:12:06;9.75;;;6.70;;
485;SDS011;229;48.734;9.340;2024-01-06T15:14:35;9.20;;;6.95;;
485;SDS011;229;48.734;9.340;2024-01-06T15:17:02;10.80;;;7.45;;
485;SDS011;229;48.734;9.340;2024-01-06T15:19:29;8.60;;;7.00;;
485;SDS011;229;48.734;9.340;2024-01-06T15:21:58;9.98;;;7.55;;
485;SDS011;229;48.734;9.340;2024-01-06T15:24:25;10.75;;;7.78;;
485;SDS011;229;48.734;9.340;2024-01-06T15:26:52;9.60;;;6.70;;
485;SDS011;229;48.734;9.340;2024-01-06T15:29:20;9.77;;;7.50;;
485;SDS011;229;48.734;9.340;2024-01-06T15:31:48;9.45;;;6.65;;
485;SDS011;229;48.734;9.340;2024-01-06T15:34:17;10.82;;;7.65;;
485;SDS011;229;48.734;9.340;2024-01-06T15:36:44;9.85;;;7.47;;
485;SDS011;229;48.734;9.340;2024-01-06T15:39:12;10.07;;;7.55;;
485;SDS011;229;48.734;9.340;2024-01-06T15:41:40;9.27;;;7.13;;
485;SDS011;229;48.734;9.340;2024-01-06T15:44:07;11.38;;;8.70;;
485;SDS011;229;48.734;9.340;2024-01-06T15:46:34;9.95;;;8.07;;